createdAt,value
2023-05-19T00:01:17.787Z,6.07
2023-05-19T00:04:21.319Z,4.65
2023-05-19T00:07:30.447Z,5.25
2023-05-19T00:10:33.894Z,6.00
2023-05-19T00:13:36.925Z,5.72
2023-05-19T00:16:40.304Z,4.80
2023-05-19T00:19:45.197Z,5.87
2023-05-19T00:22:48.736Z,5.50
2023-05-19T00:25:52.343Z,5.53
2023-05-19T00:28:55.348Z,5.85
2023-05-19T00:31:57.962Z,5.18
2023-05-19T00:35:00.944Z,5.35
2023-05-19T00:38:03.565Z,5.30
2023-05-19T00:41:07.287Z,5.75
2023-05-19T00:44:09.974Z,5.25
2023-05-19T00:47:12.934Z,5.37
2023-05-19T00:50:15.558Z,5.40
2023-05-19T00:53:19.356Z,4.87
2023-05-19T00:56:22.951Z,4.60
2023-05-19T00:59:26.264Z,5.47
2023-05-19T01:02:29.853Z,6.25
2023-05-19T01:05:33.062Z,4.32
2023-05-19T01:08:37.795Z,5.00
2023-05-19T01:11:40.793Z,5.22
2023-05-19T01:14:44.258Z,4.97
2023-05-19T01:18:07.745Z,6.22
2023-05-19T01:21:36.556Z,5.78
2023-05-19T01:25:01.084Z,6.22
2023-05-19T01:28:41.245Z,6.30
2023-05-19T01:31:47.953Z,5.90
2023-05-19T01:34:51.134Z,6.20
2023-05-19T01:37:59.855Z,6.62
2023-05-19T01:41:04.353Z,8.45
2023-05-19T01:44:08.297Z,6.70
2023-05-19T01:47:11.164Z,6.50
2023-05-19T01:50:14.044Z,7.28
2023-05-19T01:53:17.153Z,7.20
2023-05-19T01:56:32.619Z,8.20
2023-05-19T01:59:57.911Z,7.00
2023-05-19T02:03:31.603Z,7.43
2023-05-19T02:06:46.093Z,5.90
2023-05-19T02:09:54.107Z,7.50
2023-05-19T02:16:05.601Z,6.37
2023-05-19T02:19:20.952Z,7.78
2023-05-19T02:22:23.827Z,7.65
2023-05-19T02:25:27.252Z,6.30
2023-05-19T02:28:30.156Z,9.25
2023-05-19T02:31:35.689Z,8.43
2023-05-19T02:34:38.623Z,7.37
2023-05-19T02:37:41.635Z,7.37
2023-05-19T02:40:44.693Z,8.13
2023-05-19T02:43:47.281Z,7.72
2023-05-19T02:46:50.237Z,8.50
2023-05-19T02:49:52.921Z,7.28
2023-05-19T02:52:55.803Z,7.45
2023-05-19T02:55:58.551Z,7.78
2023-05-19T02:59:01.689Z,7.62
2023-05-19T03:02:04.493Z,7.47
2023-05-19T03:05:08.447Z,10.05
2023-05-19T03:08:11.086Z,7.82
2023-05-19T03:11:15.422Z,6.95
2023-05-19T03:14:18.748Z,8.63
2023-05-19T03:17:21.760Z,7.22
2023-05-19T03:20:24.689Z,7.62
2023-05-19T03:23:28.108Z,8.15
2023-05-19T03:26:30.788Z,7.82
2023-05-19T03:29:33.746Z,8.10
2023-05-19T03:32:37.915Z,8.90
2023-05-19T03:35:41.156Z,8.52
2023-05-19T03:38:43.956Z,8.60
2023-05-19T03:41:46.925Z,8.18
2023-05-19T03:44:49.741Z,10.07
2023-05-19T03:47:56.183Z,7.70
2023-05-19T03:51:01.445Z,8.15
2023-05-19T03:54:04.585Z,9.98
2023-05-19T03:57:07.343Z,9.90
2023-05-19T04:00:13.789Z,8.13
2023-05-19T04:03:16.865Z,8.00
2023-05-19T04:06:20.089Z,10.00
2023-05-19T04:09:24.148Z,10.30
2023-05-19T04:12:26.697Z,8.27
2023-05-19T04:15:29.646Z,7.70
2023-05-19T04:18:32.341Z,8.27
2023-05-19T04:21:35.289Z,8.07
2023-05-19T04:24:37.834Z,7.82
2023-05-19T04:27:41.057Z,8.60
2023-05-19T04:30:46.739Z,7.62
2023-05-19T04:33:50.039Z,8.60
2023-05-19T04:36:53.527Z,8.10
2023-05-19T04:39:57.226Z,7.43
2023-05-19T04:43:02.370Z,7.60
2023-05-19T04:46:06.208Z,8.60
2023-05-19T04:49:08.902Z,7.82
2023-05-19T04:52:12.599Z,8.48
2023-05-19T04:55:16.013Z,7.93
2023-05-19T04:58:19.799Z,7.28
2023-05-19T05:01:26.006Z,7.90
2023-05-19T05:04:29.559Z,8.38
2023-05-19T05:07:32.680Z,8.77
2023-05-19T05:10:36.672Z,8.88
2023-05-19T05:13:40.966Z,8.27
2023-05-19T05:16:44.941Z,10.40
2023-05-19T05:19:48.888Z,7.93
2023-05-19T05:22:52.375Z,8.93
2023-05-19T05:25:55.768Z,9.18
2023-05-19T05:28:58.953Z,8.05
2023-05-19T05:32:01.790Z,10.25
2023-05-19T05:35:05.997Z,9.88
2023-05-19T05:38:11.478Z,8.82
2023-05-19T05:41:15.875Z,9.10
2023-05-19T05:44:18.711Z,8.20
2023-05-19T05:47:22.181Z,7.90
2023-05-19T05:50:25.150Z,8.73
2023-05-19T05:53:32.356Z,8.13
2023-05-19T05:56:37.168Z,7.82
2023-05-19T05:59:41.004Z,7.85
2023-05-19T06:02:46.707Z,8.40
2023-05-19T06:05:50.072Z,8.25
2023-05-19T06:08:52.787Z,8.43
2023-05-19T06:12:01.940Z,8.10
2023-05-19T06:15:08.099Z,7.95
2023-05-19T06:18:11.957Z,11.32
2023-05-19T06:21:15.775Z,9.82
2023-05-19T06:24:19.731Z,8.68
2023-05-19T06:27:23.136Z,9.18
2023-05-19T06:30:26.577Z,8.10
2023-05-19T06:33:29.761Z,9.18
2023-05-19T06:36:35.260Z,8.77
2023-05-19T06:39:38.497Z,8.18
2023-05-19T06:42:41.399Z,8.32
2023-05-19T06:45:49.427Z,8.23
2023-05-19T06:48:52.386Z,7.53
2023-05-19T06:51:55.726Z,8.35
2023-05-19T06:54:58.975Z,9.30
2023-05-19T06:58:01.890Z,10.52
2023-05-19T07:01:06.040Z,7.43
2023-05-19T07:04:09.709Z,7.37
2023-05-19T07:07:13.129Z,8.85
2023-05-19T07:10:15.935Z,7.72
2023-05-19T07:13:19.438Z,8.88
2023-05-19T07:16:22.551Z,6.85
2023-05-19T07:19:25.728Z,7.22
2023-05-19T07:22:30.122Z,6.68
2023-05-19T07:25:33.361Z,8.05
2023-05-19T07:28:36.089Z,8.75
2023-05-19T07:31:39.192Z,8.20
2023-05-19T07:34:41.835Z,9.00
2023-05-19T07:37:44.762Z,7.62
2023-05-19T07:40:47.380Z,9.02
2023-05-19T07:43:50.344Z,5.97
2023-05-19T07:46:54.292Z,6.30
2023-05-19T07:49:57.205Z,5.40
2023-05-19T07:53:02.772Z,6.00
2023-05-19T07:56:06.557Z,5.47
2023-05-19T07:59:09.212Z,5.75
2023-05-19T08:02:12.141Z,6.10
2023-05-19T08:05:15.187Z,6.53
2023-05-19T08:08:19.644Z,6.25
2023-05-19T08:11:22.626Z,5.25
2023-05-19T08:14:26.239Z,5.03
2023-05-19T08:17:29.326Z,5.20
2023-05-19T08:20:32.934Z,4.90
2023-05-19T08:23:37.414Z,5.43
2023-05-19T08:26:40.305Z,4.28
2023-05-19T08:29:43.458Z,4.37
2023-05-19T08:32:46.507Z,4.15
2023-05-19T08:35:49.553Z,5.72
2023-05-19T08:38:52.136Z,3.72
2023-05-19T08:41:55.397Z,4.20
2023-05-19T08:44:58.153Z,3.90
2023-05-19T08:48:01.231Z,4.30
2023-05-19T08:51:17.914Z,3.33
2023-05-19T08:54:25.648Z,3.60
2023-05-19T08:57:28.730Z,3.83
2023-05-19T09:00:33.085Z,4.22
2023-05-19T09:03:39.593Z,3.90
2023-05-19T09:06:44.566Z,3.78
2023-05-19T09:09:47.801Z,3.70
2023-05-19T09:12:51.496Z,3.45
2023-05-19T09:15:56.260Z,4.18
2023-05-19T09:19:01.120Z,3.60
2023-05-19T09:22:03.906Z,4.45
2023-05-19T09:25:17.435Z,3.47
2023-05-19T09:28:30.595Z,3.95
2023-05-19T09:31:33.930Z,4.00
2023-05-19T09:34:41.782Z,3.80
2023-05-19T09:37:44.729Z,3.80
2023-05-19T09:40:49.821Z,4.37
2023-05-19T09:43:58.566Z,3.65
2023-05-19T09:47:02.246Z,3.85
2023-05-19T09:50:08.548Z,3.90
2023-05-19T09:53:14.132Z,4.28
2023-05-19T09:56:17.353Z,3.25
2023-05-19T09:59:24.148Z,3.42
2023-05-19T10:02:28.245Z,3.78
2023-05-19T10:05:32.353Z,3.40
2023-05-19T10:08:36.110Z,3.95
2023-05-19T10:11:39.757Z,3.15
2023-05-19T10:14:42.489Z,3.78
2023-05-19T10:17:45.743Z,3.95
2023-05-19T10:20:50.153Z,4.53
2023-05-19T10:23:53.327Z,3.83
2023-05-19T10:27:03.880Z,5.03
2023-05-19T10:30:16.816Z,4.07
2023-05-19T10:33:21.205Z,3.37
2023-05-19T10:36:39.148Z,4.95
2023-05-19T10:39:43.656Z,4.78
2023-05-19T10:43:08.094Z,3.33
2023-05-19T10:46:10.689Z,3.60
2023-05-19T10:49:23.668Z,3.45
2023-05-19T10:52:26.452Z,3.37
2023-05-19T10:56:10.244Z,3.35
2023-05-19T10:59:32.513Z,4.05
2023-05-19T11:02:44.489Z,3.30
2023-05-19T11:05:50.101Z,3.65
2023-05-19T11:08:55.532Z,3.78
2023-05-19T11:12:03.860Z,5.18
2023-05-19T11:15:10.049Z,3.40
2023-05-19T11:18:16.104Z,3.17
2023-05-19T11:21:20.607Z,3.72
2023-05-19T11:24:40.038Z,3.08
2023-05-19T11:27:46.659Z,3.40
2023-05-19T11:30:50.727Z,3.35
2023-05-19T11:33:54.406Z,3.33
2023-05-19T11:36:57.669Z,5.20
2023-05-19T11:40:07.002Z,3.08
2023-05-19T11:43:09.691Z,4.03
2023-05-19T11:46:12.662Z,4.75
2023-05-19T11:49:15.923Z,3.25
2023-05-19T11:52:21.944Z,3.05
2023-05-19T11:55:25.289Z,3.62
2023-05-19T11:58:28.332Z,3.30
2023-05-19T12:01:32.011Z,5.50
2023-05-19T12:04:35.059Z,3.30
2023-05-19T12:07:39.527Z,3.30
2023-05-19T12:10:42.749Z,3.15
2023-05-19T12:13:45.744Z,3.35
2023-05-19T12:16:48.743Z,3.10
2023-05-19T12:19:51.907Z,2.87
2023-05-19T12:22:59.280Z,3.47
2023-05-19T12:26:02.204Z,4.00
2023-05-19T12:29:06.766Z,3.05
2023-05-19T12:32:10.306Z,2.92
2023-05-19T12:35:15.388Z,3.45
2023-05-19T12:38:19.615Z,3.10
2023-05-19T12:41:24.970Z,3.58
2023-05-19T12:44:28.126Z,4.43
2023-05-19T12:47:33.523Z,3.90
2023-05-19T12:50:37.923Z,3.28
2023-05-19T12:53:42.507Z,3.58
2023-05-19T12:56:52.377Z,3.20
2023-05-19T13:00:25.654Z,3.50
2023-05-19T13:03:28.426Z,3.72
2023-05-19T13:06:32.881Z,2.65
2023-05-19T13:09:36.500Z,2.67
2023-05-19T13:12:39.349Z,3.00
2023-05-19T13:15:48.733Z,2.58
2023-05-19T13:18:52.336Z,3.78
2023-05-19T13:21:55.619Z,2.80
2023-05-19T13:24:59.904Z,2.97
2023-05-19T13:28:05.636Z,2.47
2023-05-19T13:31:08.723Z,2.65
2023-05-19T13:34:11.366Z,2.35
2023-05-19T13:37:14.524Z,2.70
2023-05-19T13:40:17.840Z,2.60
2023-05-19T13:43:20.722Z,3.20
2023-05-19T13:46:32.734Z,3.00
2023-05-19T13:49:46.622Z,3.62
2023-05-19T13:52:49.304Z,2.87
2023-05-19T13:55:55.141Z,2.62
2023-05-19T13:58:57.910Z,3.00
2023-05-19T14:02:02.890Z,2.80
2023-05-19T14:05:07.754Z,2.30
2023-05-19T14:08:11.339Z,3.03
2023-05-19T14:11:19.659Z,2.80
2023-05-19T14:14:22.798Z,2.92
2023-05-19T14:17:27.571Z,3.00
2023-05-19T14:20:32.346Z,2.78
2023-05-19T14:23:35.256Z,3.10
2023-05-19T14:26:37.809Z,2.10
2023-05-19T14:29:41.904Z,2.95
2023-05-19T14:32:44.536Z,2.95
2023-05-19T14:35:47.483Z,3.37
2023-05-19T14:38:50.188Z,2.55
2023-05-19T14:41:53.159Z,3.87
2023-05-19T14:44:55.977Z,3.35
2023-05-19T14:47:59.355Z,2.67
2023-05-19T14:51:02.060Z,5.35
2023-05-19T14:54:05.049Z,3.33
2023-05-19T14:57:08.216Z,3.37
2023-05-19T15:00:11.643Z,2.65
2023-05-19T15:03:14.734Z,2.83
2023-05-19T15:06:17.797Z,2.40
2023-05-19T15:09:20.468Z,2.35
2023-05-19T15:12:23.440Z,2.47
2023-05-19T15:15:26.388Z,2.47
2023-05-19T15:18:29.292Z,2.45
2023-05-19T15:21:31.946Z,2.42
2023-05-19T15:24:34.864Z,2.70
2023-05-19T15:27:37.815Z,3.47
2023-05-19T15:30:42.876Z,3.08
2023-05-19T15:33:45.547Z,3.28
2023-05-19T15:36:48.615Z,3.20
2023-05-19T15:39:51.794Z,2.40
2023-05-19T15:42:54.691Z,2.03
2023-05-19T15:45:57.337Z,2.30
2023-05-19T15:49:00.561Z,3.10
2023-05-19T15:52:03.881Z,2.53
2023-05-19T15:55:07.902Z,2.70
2023-05-19T15:58:10.616Z,3.08
2023-05-19T16:01:14.728Z,2.72
2023-05-19T16:04:17.968Z,2.50
2023-05-19T16:07:22.552Z,2.40
2023-05-19T16:10:25.566Z,4.07
2023-05-19T16:13:28.361Z,2.87
2023-05-19T16:16:31.251Z,2.53
2023-05-19T16:19:34.035Z,3.22
2023-05-19T16:22:36.956Z,4.07
2023-05-19T16:25:39.593Z,3.17
2023-05-19T16:28:42.460Z,3.55
2023-05-19T16:31:45.157Z,2.75
2023-05-19T16:34:48.199Z,2.80
2023-05-19T16:37:50.855Z,3.20
2023-05-19T16:40:53.839Z,4.15
2023-05-19T16:43:56.727Z,3.10
2023-05-19T16:46:59.674Z,3.00
2023-05-19T16:50:02.873Z,2.75
2023-05-19T16:53:05.895Z,2.95
2023-05-19T16:56:08.475Z,2.72
2023-05-19T16:59:11.417Z,3.00
2023-05-19T17:02:14.062Z,3.00
2023-05-19T17:05:17.317Z,6.50
2023-05-19T17:08:19.953Z,4.15
2023-05-19T17:11:22.950Z,3.12
2023-05-19T17:14:25.740Z,3.08
2023-05-19T17:17:28.655Z,3.28
2023-05-19T17:20:32.018Z,4.43
2023-05-19T17:23:35.206Z,3.00
2023-05-19T17:26:37.916Z,3.33
2023-05-19T17:29:40.899Z,4.68
2023-05-19T17:32:43.641Z,4.60
2023-05-19T17:35:46.654Z,3.55
2023-05-19T17:38:49.306Z,3.30
2023-05-19T17:41:52.267Z,4.82
2023-05-19T17:44:54.960Z,3.20
2023-05-19T17:47:57.974Z,4.43
2023-05-19T17:51:00.748Z,3.47
2023-05-19T17:54:04.034Z,3.87
2023-05-19T17:57:12.434Z,4.12
2023-05-19T18:00:16.300Z,4.68
2023-05-19T18:03:19.835Z,3.70
2023-05-19T18:06:24.241Z,4.15
2023-05-19T18:09:29.193Z,3.50
2023-05-19T18:12:32.199Z,5.45
2023-05-19T18:15:35.393Z,4.37
2023-05-19T18:18:40.203Z,4.75
2023-05-19T18:21:43.170Z,4.72
2023-05-19T18:24:46.108Z,5.57
2023-05-19T18:27:49.086Z,4.50
2023-05-19T18:31:05.112Z,4.72
2023-05-19T18:34:08.088Z,5.22
2023-05-19T18:37:10.923Z,5.25
2023-05-19T18:40:13.758Z,5.32
2023-05-19T18:43:16.478Z,4.55
2023-05-19T18:46:19.892Z,7.50
2023-05-19T18:49:24.905Z,6.55
2023-05-19T18:52:28.670Z,4.85
2023-05-19T18:55:31.354Z,5.90
2023-05-19T18:58:34.252Z,4.80
2023-05-19T19:01:36.891Z,4.35
2023-05-19T19:04:40.018Z,5.85
2023-05-19T19:07:44.398Z,4.65
2023-05-19T19:10:50.401Z,6.40
2023-05-19T19:13:55.566Z,5.22
2023-05-19T19:16:58.604Z,5.72
2023-05-19T19:20:01.282Z,5.70
2023-05-19T19:23:06.665Z,5.68
2023-05-19T19:26:09.667Z,5.22
2023-05-19T19:29:12.675Z,5.50
2023-05-19T19:32:15.371Z,6.47
2023-05-19T19:35:18.503Z,5.78
2023-05-19T19:38:21.218Z,5.75
2023-05-19T19:41:25.381Z,5.97
2023-05-19T19:44:28.028Z,5.93
2023-05-19T19:47:31.348Z,5.85
2023-05-19T19:50:34.460Z,5.53
2023-05-19T19:53:37.730Z,5.80
2023-05-19T19:56:40.413Z,6.07
2023-05-19T19:59:43.671Z,7.07
2023-05-19T20:08:57.699Z,6.85
2023-05-19T20:12:00.836Z,6.97
2023-05-19T20:15:03.804Z,6.32
2023-05-19T20:18:06.781Z,6.12
2023-05-19T20:21:09.476Z,6.35
2023-05-19T20:24:12.494Z,7.07
2023-05-19T20:27:15.205Z,6.87
2023-05-19T20:30:18.249Z,6.60
2023-05-19T20:33:21.358Z,7.22
2023-05-19T20:36:24.403Z,6.35
2023-05-19T20:39:27.038Z,6.85
2023-05-19T20:42:29.957Z,9.10
2023-05-19T20:45:32.870Z,6.75
2023-05-19T20:48:36.251Z,7.03
2023-05-19T20:51:38.830Z,6.80
2023-05-19T20:54:42.054Z,7.30
2023-05-19T20:57:44.810Z,8.15
2023-05-19T21:00:48.745Z,7.70
2023-05-19T21:03:51.564Z,6.20
2023-05-19T21:06:54.634Z,8.80
2023-05-19T21:09:57.957Z,6.05
2023-05-19T21:13:00.920Z,6.62
2023-05-19T21:16:03.559Z,6.95
2023-05-19T21:19:06.996Z,6.97
2023-05-19T21:22:09.717Z,6.53
2023-05-19T21:25:12.975Z,7.05
2023-05-19T21:28:15.749Z,8.18
2023-05-19T21:31:19.073Z,7.95
2023-05-19T21:34:23.456Z,7.78
2023-05-19T21:37:26.422Z,9.98
2023-05-19T21:40:28.987Z,8.30
2023-05-19T21:43:31.980Z,8.30
2023-05-19T21:46:34.766Z,8.88
2023-05-19T21:49:39.979Z,8.98
2023-05-19T21:52:42.904Z,8.60
2023-05-19T21:55:46.073Z,7.12
2023-05-19T21:58:48.662Z,8.68
2023-05-19T22:01:51.528Z,7.25
2023-05-19T22:04:54.426Z,7.32
2023-05-19T22:07:57.096Z,8.10
2023-05-19T22:11:00.041Z,7.82
2023-05-19T22:14:02.716Z,8.35
2023-05-19T22:17:05.598Z,9.32
2023-05-19T22:20:09.491Z,7.57
2023-05-19T22:23:12.382Z,7.05
2023-05-19T22:26:14.920Z,7.30
2023-05-19T22:29:18.685Z,8.30
2023-05-19T22:32:21.388Z,8.90
2023-05-19T22:35:24.399Z,8.75
2023-05-19T22:38:27.000Z,7.78
2023-05-19T22:41:29.826Z,7.95
2023-05-19T22:44:32.461Z,7.37
2023-05-19T22:47:35.459Z,7.07
2023-05-19T22:50:38.112Z,8.00
2023-05-19T22:53:42.597Z,6.65
2023-05-19T22:56:46.358Z,8.10
2023-05-19T22:59:49.394Z,6.85
2023-05-19T23:02:52.212Z,7.82
2023-05-19T23:05:55.335Z,7.18
2023-05-19T23:09:02.600Z,6.68
2023-05-19T23:12:05.963Z,6.60
2023-05-19T23:15:09.732Z,6.65
2023-05-19T23:18:14.735Z,9.93
2023-05-19T23:21:17.362Z,7.40
2023-05-19T23:24:20.203Z,10.45
2023-05-19T23:27:22.863Z,8.52
2023-05-19T23:30:30.414Z,8.82
2023-05-19T23:33:33.028Z,7.53
2023-05-19T23:36:36.700Z,7.07
2023-05-19T23:39:39.576Z,7.00
2023-05-19T23:42:44.292Z,7.53
2023-05-19T23:45:46.814Z,9.07
2023-05-19T23:48:49.607Z,9.15
2023-05-19T23:51:52.519Z,6.93
2023-05-19T23:54:55.485Z,7.43
2023-05-19T23:57:58.069Z,7.60
